Details From MUHA - Havana Jose Marti Intl
To KEYW - Key West Intl
Flight Number -
Tags decoded
Created
Modified
Stats Distance 247 nm / 457 km
Max Altitude 0 ft / 0 m
Waypoints 11
Social Downloads 0
Likes 0
Share VATSIM

Download

Looking for another format? Having issues loading an existing format? Contact us
Advertisement - Login to hide

Notes

Requested: MUHA UVA TADPO VRGAS MTH EYW STING STRAP CHETS ATNAW BUSBY KEYW

Route

MUHA UVA TADPO VRGAS MTH EYW STING CHETS ATNAW BUSBY KEYW

ID Type Via Altitude Latitude Longitude Leg Dist Tot Dist Heading (true) Name
O MUHA APT - 0 ft / 0 m 22.98915˚ -82.40909˚ - 0 nm - Havana Jose Marti Intl
UVA VOR - 0 ft / 0 m 23.02469˚ -81.45358˚ 52 nm 52 nm 87° / 88° VARDER VOR-DME
TADPO FIX - 0 ft / 0 m 24.00044˚ -81.21700˚ 60 nm 112 nm 12° / 13° -
VRGAS FIX - 0 ft / 0 m 24.46417˚ -81.13222˚ 28 nm 141 nm 9° / 9° -
MTH NDB - 0 ft / 0 m 24.71189˚ -81.09531˚ 15 nm 156 nm 8° / 8° MARATHON NDB
EYW VOR - 0 ft / 0 m 24.58589˚ -81.80047˚ 39 nm 195 nm 259° / 259° KEY WEST VORTAC
STING FIX - 0 ft / 0 m 24.88158˚ -81.79631˚ 17 nm 213 nm 1° / 1° -
CHETS FIX - 0 ft / 0 m 24.63752˚ -81.96896˚ 17 nm 230 nm 213° / 213° -
ATNAW FIX - 0 ft / 0 m 24.55393˚ -81.96784˚ 5 nm 235 nm 179° / 179° -
BUSBY FIX - 0 ft / 0 m 24.55521˚ -81.84966˚ 6 nm 242 nm 89° / 89° -
O KEYW APT - 0 ft / 0 m 24.55612˚ -81.75955˚ 4 nm 246 nm 89° / 89° Key West Intl

Altitude Profile

Advertisement - Login to hide

Weather


0- 5 10 15 20 25 30 35+ Temperature / ° C

Clouds and Precipitation
Forecast for 2017-12-19 00:00 UTC. Updated an hour ago

Ground ~20,000 ft ~40,000 ft Winds

MUHA

Details ICAO MUHA (HAV)
Name Havana Jose Marti Intl
Region Cuba
Timezone America/Havana (UTC-5.0)
Stats Elevation 209 ft / 64 m (AMSL)
Location 22.989154° -82.409086°
Runways 1
Magnetic Variation 4.909° W

METAR

MUHA 182155Z 06010KT 9000 FEW030 26/22 Q1020

Decode

TAF

Not found

Departure Runways

ID Width Length Bearing (true) Bearing (mag) Surface Threshold Offset Overrun Length
06 148 ft / 45 m 13,133 ft / 4,003 m 54.21° 59.12° Asphalt 0 ft / 0 m 476 ft / 145 m
24 148 ft / 45 m 13,133 ft / 4,003 m 234.23° 239.14° Asphalt 0 ft / 0 m 197 ft / 60 m

KEYW

Details ICAO KEYW (EYW)
Name Key West Intl
Region United States
Timezone America/New_York (UTC-5.0)
Stats Elevation 2 ft / 1 m (AMSL)
Location 24.556124° -81.759546°
Runways 1
Magnetic Variation 5.546° W

METAR

KEYW 182153Z 09009KT 10SM CLR 26/22 A3017 RMK AO2 SLP216 T02560222

Decode

TAF

KEYW 181927Z 1819/1918 09010KT P6SM SCT030 BKN200

Decode

Destination Runways

ID Width Length Bearing (true) Bearing (mag) Surface Threshold Offset Overrun Length
09 100 ft / 30 m 4,794 ft / 1,461 m 89.38° 94.93° Asphalt 151 ft / 46 m 0 ft / 0 m
27 100 ft / 30 m 4,794 ft / 1,461 m 269.39° 274.94° Asphalt 151 ft / 46 m 0 ft / 0 m

Popular Alternatives